Time;durP1;ratioP1;P1;durP2;ratioP2;P2;SDS_P1;SDS_P2;PMS_P1;PMS_P2;Temp;Humidity;BMP_temperature;BMP_pressure;BME280_temperature;BME280_humidity;BME280_pressure;Samples;Min_cycle;Max_cycle;Signal;HPM_P1;HPM_P2
2021/06/03 00:01:24;;;;;;;;;;;;;;;24.30;48.41;101292.56;2210369;39;113894;-53
2021/06/03 00:02:57;;;;;;;;;;;;;;;24.32;48.66;101289.44;2211333;39;113958;-53
2021/06/03 00:04:29;;;;;;;;;;;;;;;24.31;49.19;101288.59;2208120;39;113673;-53
2021/06/03 00:06:04;;;;;;;;;;;;;;;24.32;49.19;101295.91;2207902;39;113941;-53
2021/06/03 00:07:36;;;;;;;;;;;;;;;24.30;48.99;101289.75;2208318;39;114082;-53
2021/06/03 00:09:09;;;;;;;;;;;;;;;24.31;49.08;101284.94;2207268;39;115109;-53
2021/06/03 00:10:43;;;;;;;;;;;;;;;24.32;48.92;101295.91;2204142;39;115421;-53
2021/06/03 00:12:15;;;;;;;;;;;;;;;24.33;49.17;101291.13;2202059;39;113789;-53
2021/06/03 00:13:49;;;;;;;;;;;;;;;24.34;49.18;101292.78;2204448;39;114900;-53
2021/06/03 00:15:21;;;;;;;;;;;;;;;24.36;49.25;101296.94;2207311;39;114394;-53
2021/06/03 00:16:54;;;;;;;;;;;;;;;24.34;49.40;101292.78;2201152;39;114778;-53
2021/06/03 00:18:26;;;;;;;;;;;;;;;24.34;49.54;101298.44;2206320;39;115075;-53
2021/06/03 00:19:58;;;;;;;;;;;;;;;24.35;49.21;101298.09;2207810;39;114971;-53
2021/06/03 00:21:31;;;;;;;;;;;;;;;24.36;49.07;101299.75;2209405;39;114844;-53
2021/06/03 00:23:03;;;;;;;;;;;;;;;24.35;49.66;101289.63;2208729;39;115053;-53
2021/06/03 00:24:35;;;;;;;;;;;;;;;24.35;49.45;101295.25;2201414;39;114817;-53
2021/06/03 00:26:07;;;;;;;;;;;;;;;24.35;49.62;101292.44;2205718;39;114820;-54
2021/06/03 00:27:39;;;;;;;;;;;;;;;24.36;49.58;101293.28;2208959;39;115155;-53
2021/06/03 00:29:13;;;;;;;;;;;;;;;24.36;49.15;101293.28;2214281;39;114848;-53
2021/06/03 00:30:46;;;;;;;;;;;;;;;24.37;49.63;101297.78;2208274;39;115602;-53
2021/06/03 00:32:18;;;;;;;;;;;;;;;24.38;49.88;101295.78;2201182;39;115755;-53
2021/06/03 00:33:50;;;;;;;;;;;;;;;24.36;50.10;101287.63;2207539;39;114891;-53
2021/06/03 00:35:22;;;;;;;;;;;;;;;24.38;50.06;101295.78;2207859;39;114920;-53
2021/06/03 00:36:54;;;;;;;;;;;;;;;24.38;49.39;101287.31;2210507;39;114553;-55
2021/06/03 00:38:27;;;;;;;;;;;;;;;24.40;49.88;101291.47;2203446;39;115511;-54
2021/06/03 00:39:59;;;;;;;;;;;;;;;24.40;49.93;101294.28;2208481;39;115890;-52
2021/06/03 00:41:31;;;;;;;;;;;;;;;24.41;49.58;101292.28;2201412;39;115629;-53
2021/06/03 00:43:04;;;;;;;;;;;;;;;24.39;49.80;101295.47;2204250;39;115544;-54
2021/06/03 00:44:35;;;;;;;;;;;;;;;24.40;50.06;101296.28;2205431;39;115359;-54
2021/06/03 00:46:08;;;;;;;;;;;;;;;24.40;49.78;101288.63;2205695;39;114743;-54
2021/06/03 00:47:41;;;;;;;;;;;;;;;24.41;49.79;101292.28;2210555;39;114289;-53
2021/06/03 00:49:13;;;;;;;;;;;;;;;24.41;49.59;101297.94;2204126;39;116251;-53
2021/06/03 00:50:46;;;;;;;;;;;;;;;24.41;49.88;101295.13;2211003;39;115440;-53
2021/06/03 00:52:18;;;;;;;;;;;;;;;24.41;50.07;101295.97;2209697;39;113596;-52
2021/06/03 00:53:50;;;;;;;;;;;;;;;24.43;50.00;101295.63;2201152;39;113937;-53
2021/06/03 00:55:22;;;;;;;;;;;;;;;24.43;50.07;101295.63;2207816;39;113863;-53
2021/06/03 00:56:55;;;;;;;;;;;;;;;24.43;50.36;101287.16;2209764;39;113737;-53
2021/06/03 00:58:27;;;;;;;;;;;;;;;24.42;50.50;101294.81;2206383;39;114042;-54
2021/06/03 00:59:59;;;;;;;;;;;;;;;24.43;50.31;101290.81;2209806;39;113643;-53
2021/06/03 01:01:31;;;;;;;;;;;;;;;24.44;49.92;101283.19;2206454;39;114232;-53
2021/06/03 01:03:04;;;;;;;;;;;;;;;24.43;50.50;101284.34;2209977;39;113876;-53
2021/06/03 01:04:36;;;;;;;;;;;;;;;24.44;50.37;101292.47;2210892;39;113829;-53
2021/06/03 01:06:09;;;;;;;;;;;;;;;24.46;49.59;101294.97;2205903;39;113606;-53
2021/06/03 01:07:41;;;;;;;;;;;;;;;24.45;50.39;101288.50;2208728;39;113896;-53
2021/06/03 01:09:14;;;;;;;;;;;;;;;24.45;50.82;101291.31;2208580;39;113950;-53
2021/06/03 01:10:48;;;;;;;;;;;;;;;24.46;50.55;101290.16;2207684;39;113939;-54
2021/06/03 01:12:24;;;;;;;;;;;;;;;24.46;50.46;101287.34;2211343;39;114256;-53
2021/06/03 01:13:59;;;;;;;;;;;;;;;24.46;50.24;101289.31;2207504;39;114921;-53
2021/06/03 01:15:31;;;;;;;;;;;;;;;24.46;49.84;101283.69;2208555;39;115243;-53
2021/06/03 01:17:03;;;;;;;;;;;;;;;24.46;49.81;101281.69;2208355;39;114310;-53
2021/06/03 01:18:37;;;;;;;;;;;;;;;24.47;50.37;101291.00;2208111;39;113726;-54
2021/06/03 01:20:10;;;;;;;;;;;;;;;24.46;50.27;101283.69;2211433;39;113858;-54
2021/06/03 01:21:45;;;;;;;;;;;;;;;24.47;50.17;101286.19;2209686;39;114860;-53
2021/06/03 01:23:18;;;;;;;;;;;;;;;24.47;49.94;101280.53;2204716;39;115119;-53
2021/06/03 01:24:54;;;;;;;;;;;;;;;24.47;49.83;101285.34;2204985;39;114914;-53
2021/06/03 01:26:27;;;;;;;;;;;;;;;24.47;50.05;101286.19;2205832;39;114844;-54
2021/06/03 01:28:03;;;;;;;;;;;;;;;24.47;49.73;101285.34;2208407;39;115057;-53
2021/06/03 01:29:38;;;;;;;;;;;;;;;24.47;50.73;101285.34;2210865;39;114094;-53
2021/06/03 01:31:11;;;;;;;;;;;;;;;24.48;50.10;101292.66;2209959;39;114931;-53
2021/06/03 01:32:46;;;;;;;;;;;;;;;24.46;50.79;101284.50;2210527;39;115136;-53
2021/06/03 01:34:19;;;;;;;;;;;;;;;24.47;50.52;101296.66;2213870;39;114808;-53
2021/06/03 01:35:53;;;;;;;;;;;;;;;24.47;50.74;101293.81;2209117;39;114695;-52
2021/06/03 01:37:25;;;;;;;;;;;;;;;24.48;50.42;101296.34;2205166;39;114897;-53
2021/06/03 01:39:00;;;;;;;;;;;;;;;24.47;50.50;101293.81;2210442;39;115738;-53
2021/06/03 01:40:33;;;;;;;;;;;;;;;24.47;50.21;101291.00;2197980;39;114632;-53
2021/06/03 01:42:06;;;;;;;;;;;;;;;24.48;50.97;101298.31;2208944;39;115161;-55
2021/06/03 01:43:39;;;;;;;;;;;;;;;24.50;50.50;101299.66;2210758;39;115497;-53
2021/06/03 01:45:12;;;;;;;;;;;;;;;24.49;50.49;101297.13;2206376;39;114950;-53
2021/06/03 01:46:44;;;;;;;;;;;;;;;24.50;50.71;101308.13;2207355;39;114986;-54
2021/06/03 01:48:18;;;;;;;;;;;;;;;24.50;50.62;101301.63;2208629;39;114555;-53
2021/06/03 01:49:50;;;;;;;;;;;;;;;24.50;50.41;101293.16;2208273;39;115667;-53
2021/06/03 01:51:22;;;;;;;;;;;;;;;24.48;50.52;101304.81;2205490;39;115545;-53
2021/06/03 01:52:55;;;;;;;;;;;;;;;24.48;50.52;101303.97;2205704;39;115570;-53
2021/06/03 01:54:28;;;;;;;;;;;;;;;24.49;50.36;101297.13;2210670;39;115593;-53
2021/06/03 01:56:03;;;;;;;;;;;;;;;24.48;50.46;101301.16;2209524;39;114664;-53
2021/06/03 01:57:36;;;;;;;;;;;;;;;24.48;50.68;101299.16;2207587;39;115587;-53
2021/06/03 01:59:08;;;;;;;;;;;;;;;24.49;51.14;101302.78;2210400;39;113713;-53
2021/06/03 02:00:41;;;;;;;;;;;;;;;24.48;51.15;101304.81;2205656;39;114118;-52
2021/06/03 02:02:13;;;;;;;;;;;;;;;24.51;51.10;101311.78;2205791;39;113778;-52
2021/06/03 02:03:46;;;;;;;;;;;;;;;24.51;51.09;101309.78;2205074;39;113999;-53
2021/06/03 02:05:18;;;;;;;;;;;;;;;24.51;51.85;101309.78;2206361;39;113721;-54
2021/06/03 02:06:52;;;;;;;;;;;;;;;24.51;50.80;101306.97;2207353;39;113575;-53
2021/06/03 02:08:24;;;;;;;;;;;;;;;24.53;51.12;101312.31;2210530;39;113953;-54
2021/06/03 02:09:56;;;;;;;;;;;;;;;24.52;51.84;101307.81;2206472;39;113650;-53
2021/06/03 02:11:28;;;;;;;;;;;;;;;24.52;51.35;101314.28;2205193;39;114099;-52
2021/06/03 02:13:03;;;;;;;;;;;;;;;24.53;50.74;101306.66;2206615;39;113618;-53
2021/06/03 02:14:38;;;;;;;;;;;;;;;24.52;52.00;101311.47;2208072;39;113713;-53
2021/06/03 02:16:11;;;;;;;;;;;;;;;24.53;51.94;101309.47;2210408;39;114252;-53
2021/06/03 02:17:46;;;;;;;;;;;;;;;24.53;51.80;101312.31;2210670;39;113773;-53
2021/06/03 02:19:22;;;;;;;;;;;;;;;24.53;51.33;101315.13;2212862;39;113539;-53
2021/06/03 02:20:55;;;;;;;;;;;;;;;24.52;51.38;101314.28;2208088;39;115304;-53
2021/06/03 02:22:27;;;;;;;;;;;;;;;24.53;51.69;101309.47;2209743;39;114039;-53
2021/06/03 02:23:59;;;;;;;;;;;;;;;24.53;52.26;101309.47;2202552;39;115527;-53
2021/06/03 02:25:31;;;;;;;;;;;;;;;24.54;52.06;101311.94;2201884;39;114983;-52
2021/06/03 02:27:04;;;;;;;;;;;;;;;24.55;51.55;101316.44;2206103;39;115162;-53
2021/06/03 02:28:36;;;;;;;;;;;;;;;24.54;51.96;101309.13;2211751;39;113667;-53
2021/06/03 02:30:09;;;;;;;;;;;;;;;24.54;52.11;101311.94;2204730;39;115214;-53
2021/06/03 02:31:41;;;;;;;;;;;;;;;24.53;51.82;101310.28;2207629;39;115493;-53
2021/06/03 02:33:13;;;;;;;;;;;;;;;24.52;51.57;101307.81;2203139;39;114941;-53
2021/06/03 02:34:48;;;;;;;;;;;;;;;24.54;51.62;101317.59;2208651;39;115200;-53
2021/06/03 02:36:20;;;;;;;;;;;;;;;24.54;52.11;101311.94;2208857;39;114027;-53
2021/06/03 02:37:52;;;;;;;;;;;;;;;24.54;51.36;101314.78;2208741;39;117585;-53
2021/06/03 02:39:24;;;;;;;;;;;;;;;24.53;52.49;101315.94;2210524;39;114834;-53
2021/06/03 02:40:58;;;;;;;;;;;;;;;24.52;52.62;101319.94;2204514;39;115389;-56
2021/06/03 02:42:30;;;;;;;;;;;;;;;24.53;52.52;101317.94;2199767;39;115448;-53
2021/06/03 02:44:03;;;;;;;;;;;;;;;24.53;51.70;101320.78;2206294;39;114600;-53
2021/06/03 02:45:35;;;;;;;;;;;;;;;24.55;51.83;101319.28;2210822;39;116594;-53
2021/06/03 02:47:07;;;;;;;;;;;;;;;24.55;52.30;101326.91;2209578;39;115574;-53
2021/06/03 02:48:39;;;;;;;;;;;;;;;24.55;51.68;101327.75;2207598;39;115483;-54
2021/06/03 02:50:12;;;;;;;;;;;;;;;24.57;51.75;101318.97;2206260;39;115458;-53
2021/06/03 02:51:44;;;;;;;;;;;;;;;24.56;51.53;101322.94;2204895;39;114612;-53
2021/06/03 02:53:16;;;;;;;;;;;;;;;24.55;51.91;101324.09;2207127;39;116345;-53
2021/06/03 02:54:48;;;;;;;;;;;;;;;24.55;51.72;101322.09;2208731;39;114670;-53
2021/06/03 02:56:20;;;;;;;;;;;;;;;24.55;52.20;101322.09;2201844;39;115682;-52
2021/06/03 02:57:53;;;;;;;;;;;;;;;24.55;51.79;101327.75;2205802;39;115252;-54
2021/06/03 03:00:02;;;;;;;;;;;;;;;24.56;52.20;101334.25;2203402;39;114408;-53
2021/06/03 03:01:34;;;;;;;;;;;;;;;24.56;52.32;101328.59;2204517;39;114803;-54
2021/06/03 03:03:08;;;;;;;;;;;;;;;24.53;52.45;101332.88;2213322;39;115790;-54
2021/06/03 03:04:40;;;;;;;;;;;;;;;24.54;52.41;101340.22;2207951;39;113771;-53
2021/06/03 03:06:12;;;;;;;;;;;;;;;24.54;52.59;101336.53;2209120;39;113942;-52
2021/06/03 03:07:45;;;;;;;;;;;;;;;24.54;51.76;101340.22;2211241;39;113916;-53
2021/06/03 03:09:17;;;;;;;;;;;;;;;24.54;51.82;101342.19;2205771;39;113846;-53
2021/06/03 03:10:51;;;;;;;;;;;;;;;24.54;52.50;101343.03;2207236;39;113960;-53
2021/06/03 03:12:24;;;;;;;;;;;;;;;24.53;52.28;101341.34;2205333;39;113793;-53
2021/06/03 03:13:56;;;;;;;;;;;;;;;24.56;51.70;101340.72;2208459;39;113778;-54
2021/06/03 03:15:28;;;;;;;;;;;;;;;24.54;52.13;101345.84;2201513;39;114148;-52
2021/06/03 03:17:00;;;;;;;;;;;;;;;24.54;52.76;101342.19;2210774;39;113723;-54
2021/06/03 03:18:34;;;;;;;;;;;;;;;24.53;51.98;101343.38;2204972;39;113813;-55
2021/06/03 03:20:07;;;;;;;;;;;;;;;24.54;52.28;101350.66;2203361;39;113808;-53
2021/06/03 03:21:54;;;;;;;;;;;;;;;24.54;52.21;101345.84;2206587;39;113738;-53
2021/06/03 03:23:26;;;;;;;;;;;;;;;24.55;52.33;101358.00;2205573;39;113801;-53
2021/06/03 03:24:58;;;;;;;;;;;;;;;24.55;52.39;101364.47;2208344;39;114308;-54
2021/06/03 03:26:30;;;;;;;;;;;;;;;24.56;51.82;101359.66;2208624;39;113843;-54
2021/06/03 03:28:03;;;;;;;;;;;;;;;24.57;51.61;101362.19;2208316;39;115233;-53
2021/06/03 03:29:35;;;;;;;;;;;;;;;24.55;51.65;101369.28;2200449;39;114172;-53
2021/06/03 03:31:06;;;;;;;;;;;;;;;24.55;52.26;101366.47;2207960;39;113884;-53
2021/06/03 03:32:39;;;;;;;;;;;;;;;24.53;52.01;101369.63;2211446;39;114977;-53
2021/06/03 03:34:11;;;;;;;;;;;;;;;24.53;52.15;101366.78;2200698;39;114048;-53
2021/06/03 03:37:19;;;;;;;;;;;;;;;24.55;52.55;101380.59;2204836;39;114972;-53
2021/06/03 03:38:51;;;;;;;;;;;;;;;24.54;52.57;101370.44;2210427;39;113954;-53
2021/06/03 03:40:23;;;;;;;;;;;;;;;24.55;52.38;101369.28;2209087;39;114113;-53
2021/06/03 03:41:56;;;;;;;;;;;;;;;24.53;52.69;101368.81;2205909;39;115252;-54
2021/06/03 03:43:27;;;;;;;;;;;;;;;24.53;52.70;101365.97;2211603;39;115161;-54
2021/06/03 03:45:00;;;;;;;;;;;;;;;24.53;52.88;101371.63;2210620;39;114963;-53
2021/06/03 03:46:32;;;;;;;;;;;;;;;24.54;53.05;101370.44;2205464;39;115080;-53
2021/06/03 03:48:04;;;;;;;;;;;;;;;24.54;53.05;101365.63;2209214;39;115474;-53
2021/06/03 03:49:36;;;;;;;;;;;;;;;24.55;52.28;101372.97;2207461;39;115573;-53
2021/06/03 03:51:12;;;;;;;;;;;;;;;24.55;52.56;101377.78;2211023;39;115560;-53
2021/06/03 03:52:45;;;;;;;;;;;;;;;24.55;52.25;101380.59;2204152;39;115799;-53
2021/06/03 03:54:17;;;;;;;;;;;;;;;24.54;52.27;101376.09;2208704;39;115825;-53
2021/06/03 03:55:50;;;;;;;;;;;;;;;24.54;52.19;101385.41;2206662;39;116437;-53
2021/06/03 03:57:24;;;;;;;;;;;;;;;24.55;52.29;101386.25;2209306;39;115024;-52
2021/06/03 03:58:58;;;;;;;;;;;;;;;24.53;52.66;101380.91;2211233;39;115466;-52
2021/06/03 04:00:31;;;;;;;;;;;;;;;24.54;52.28;101391.06;2204487;39;114562;-54
2021/06/03 04:02:04;;;;;;;;;;;;;;;24.55;52.46;101394.72;2209452;39;115613;-53
2021/06/03 04:03:36;;;;;;;;;;;;;;;24.56;52.17;101393.56;2211187;39;115767;-53
2021/06/03 04:05:09;;;;;;;;;;;;;;;24.54;52.79;101393.88;2203461;39;114705;-54
2021/06/03 04:06:41;;;;;;;;;;;;;;;24.55;52.18;101394.72;2202067;39;115009;-53
2021/06/03 04:08:13;;;;;;;;;;;;;;;24.55;52.29;101403.19;2206110;39;114611;-53
2021/06/03 04:09:45;;;;;;;;;;;;;;;24.53;52.00;101403.50;2202069;39;115646;-53
2021/06/03 04:11:19;;;;;;;;;;;;;;;24.54;52.11;101407.19;2206744;39;113921;-53
2021/06/03 04:12:51;;;;;;;;;;;;;;;24.53;52.46;101408.34;2203151;39;113817;-53
2021/06/03 04:14:23;;;;;;;;;;;;;;;24.54;52.14;101412.81;2202488;39;113662;-52
2021/06/03 04:15:55;;;;;;;;;;;;;;;24.55;52.33;101400.38;2210796;39;114298;-53
2021/06/03 04:17:27;;;;;;;;;;;;;;;24.55;52.25;101401.22;2198128;39;113569;-53
2021/06/03 04:18:59;;;;;;;;;;;;;;;24.54;52.27;101404.34;2207857;39;113645;-53
2021/06/03 04:20:33;;;;;;;;;;;;;;;24.53;52.44;101412.00;2206975;39;113624;-53
2021/06/03 04:22:05;;;;;;;;;;;;;;;24.55;52.24;101408.84;2208077;39;113808;-53
2021/06/03 04:23:37;;;;;;;;;;;;;;;24.53;53.20;101406.34;2208634;39;113747;-54
2021/06/03 04:25:09;;;;;;;;;;;;;;;24.54;53.22;101418.47;2210855;39;113771;-53
2021/06/03 04:26:41;;;;;;;;;;;;;;;24.54;52.40;101413.66;2204117;39;113651;-53
2021/06/03 04:28:13;;;;;;;;;;;;;;;24.55;53.14;101422.97;2208365;39;113611;-53
2021/06/03 04:29:45;;;;;;;;;;;;;;;24.54;52.88;101419.31;2205281;39;113577;-53
2021/06/03 04:31:17;;;;;;;;;;;;;;;24.55;52.82;101421.00;2206707;39;113762;-52
2021/06/03 04:32:50;;;;;;;;;;;;;;;24.55;52.91;101422.97;2208972;39;114005;-54
2021/06/03 04:34:22;;;;;;;;;;;;;;;24.55;52.47;101418.16;2197747;39;114860;-54
2021/06/03 04:35:54;;;;;;;;;;;;;;;24.55;52.83;101422.97;2202816;39;113962;-53
2021/06/03 04:37:26;;;;;;;;;;;;;;;24.55;52.99;101418.16;2208754;39;114790;-53
2021/06/03 04:38:58;;;;;;;;;;;;;;;24.55;53.11;101429.47;2209922;39;115081;-53
2021/06/03 04:40:30;;;;;;;;;;;;;;;24.55;52.71;101429.47;2208605;39;115020;-53
2021/06/03 04:42:03;;;;;;;;;;;;;;;24.55;52.77;101431.44;2198668;39;113858;-53
2021/06/03 04:43:37;;;;;;;;;;;;;;;24.55;52.79;101432.28;2203060;39;116026;-54
2021/06/03 04:45:12;;;;;;;;;;;;;;;24.55;52.84;101434.28;2210553;39;115014;-52
2021/06/03 04:46:44;;;;;;;;;;;;;;;24.55;52.56;101428.63;2210416;39;114072;-53
2021/06/03 04:48:16;;;;;;;;;;;;;;;24.54;52.55;101433.44;2207464;39;115131;-53
2021/06/03 04:49:49;;;;;;;;;;;;;;;24.55;52.50;101428.63;2203235;39;115058;-53
2021/06/03 04:51:21;;;;;;;;;;;;;;;24.54;52.47;101433.44;2198945;39;114794;-52
2021/06/03 04:52:53;;;;;;;;;;;;;;;24.54;52.80;101429.78;2200219;39;114963;-53
2021/06/03 04:54:25;;;;;;;;;;;;;;;24.54;52.33;101433.44;2206271;39;115774;-53
2021/06/03 04:55:57;;;;;;;;;;;;;;;24.55;52.35;101437.94;2208016;39;115904;-52
2021/06/03 04:57:29;;;;;;;;;;;;;;;24.56;52.48;101441.59;2202407;39;115246;-53
2021/06/03 04:59:01;;;;;;;;;;;;;;;24.55;52.20;101448.41;2208431;39;114710;-52
2021/06/03 05:00:36;;;;;;;;;;;;;;;24.56;52.35;101447.25;2209808;39;114577;-54
2021/06/03 05:02:08;;;;;;;;;;;;;;;24.56;52.29;101445.25;2210239;39;116563;-53
2021/06/03 05:03:40;;;;;;;;;;;;;;;24.55;52.39;101446.41;2211205;39;115810;-53
2021/06/03 05:05:13;;;;;;;;;;;;;;;24.56;52.39;101452.91;2208141;39;114646;-53
2021/06/03 05:06:44;;;;;;;;;;;;;;;24.57;52.56;101446.09;2208258;39;115691;-53
2021/06/03 05:08:17;;;;;;;;;;;;;;;24.55;52.25;101454.91;2207940;39;115490;-53
2021/06/03 05:09:49;;;;;;;;;;;;;;;24.57;52.42;101448.94;2206278;39;114560;-54
2021/06/03 05:11:21;;;;;;;;;;;;;;;24.56;52.65;101450.09;2208368;39;114947;-52
2021/06/03 05:12:53;;;;;;;;;;;;;;;24.54;52.64;101458.03;2198775;39;114564;-53
2021/06/03 05:14:25;;;;;;;;;;;;;;;24.55;52.13;101462.53;2202155;39;115656;-53
2021/06/03 05:15:58;;;;;;;;;;;;;;;24.56;52.34;101456.56;2207308;39;115581;-53
2021/06/03 05:17:31;;;;;;;;;;;;;;;24.53;52.56;101457.19;2200740;39;113925;-53
2021/06/03 05:19:03;;;;;;;;;;;;;;;24.54;52.28;101458.03;2204080;39;113737;-54
2021/06/03 05:20:35;;;;;;;;;;;;;;;24.54;52.64;101456.03;2215354;39;113924;-53
2021/06/03 05:22:07;;;;;;;;;;;;;;;24.54;52.77;101456.03;2198914;39;113683;-53
2021/06/03 05:23:39;;;;;;;;;;;;;;;24.55;52.54;101459.72;2204762;39;113853;-53
2021/06/03 05:25:13;;;;;;;;;;;;;;;24.53;52.98;101457.19;2200351;39;113778;-53
2021/06/03 05:26:45;;;;;;;;;;;;;;;24.54;52.72;101458.03;2207485;39;113979;-55
2021/06/03 05:28:18;;;;;;;;;;;;;;;24.53;52.78;101462.03;2209697;39;113968;-53
2021/06/03 05:29:50;;;;;;;;;;;;;;;24.52;52.70;101463.19;2197402;39;113648;-53
2021/06/03 05:31:22;;;;;;;;;;;;;;;24.51;52.57;101456.69;2206541;39;114232;-53
2021/06/03 05:32:55;;;;;;;;;;;;;;;24.53;52.42;101474.16;2210896;39;113774;-53
2021/06/03 05:34:27;;;;;;;;;;;;;;;24.51;52.90;101468.00;2203171;39;117490;-54
2021/06/03 05:35:59;;;;;;;;;;;;;;;24.53;52.86;101467.69;2207162;39;114035;-53
2021/06/03 05:37:31;;;;;;;;;;;;;;;24.52;52.58;101466.84;2205954;39;113805;-55
2021/06/03 05:39:05;;;;;;;;;;;;;;;24.51;52.43;101479.31;2204885;39;115324;-54
2021/06/03 05:40:37;;;;;;;;;;;;;;;24.54;52.40;101473.00;2206510;39;114899;-53
2021/06/03 05:42:09;;;;;;;;;;;;;;;24.51;52.93;101473.66;2208873;39;113915;-54
2021/06/03 05:43:42;;;;;;;;;;;;;;;24.50;52.87;101479.63;2204573;39;114945;-55
2021/06/03 05:45:14;;;;;;;;;;;;;;;24.50;52.94;101483.28;2204358;39;114907;-52
2021/06/03 05:46:46;;;;;;;;;;;;;;;24.51;52.57;101473.66;2198197;39;114435;-54
2021/06/03 05:48:18;;;;;;;;;;;;;;;24.51;52.80;101484.13;2200695;39;114812;-53
2021/06/03 05:49:50;;;;;;;;;;;;;;;24.51;53.12;101492.59;2202739;39;114944;-53
2021/06/03 05:51:22;;;;;;;;;;;;;;;24.49;53.27;101487.25;2204651;39;113955;-54
2021/06/03 05:52:55;;;;;;;;;;;;;;;24.48;53.05;101494.09;2205903;39;114805;-53
2021/06/03 05:54:27;;;;;;;;;;;;;;;24.48;53.40;101490.41;2208737;39;113977;-53
2021/06/03 05:55:59;;;;;;;;;;;;;;;24.49;53.06;101492.06;2209444;39;114874;-53
2021/06/03 05:57:31;;;;;;;;;;;;;;;24.49;53.09;101489.25;2210037;39;115091;-52
2021/06/03 05:59:03;;;;;;;;;;;;;;;24.48;53.22;101493.25;2213825;39;115180;-53
2021/06/03 06:00:35;;;;;;;;;;;;;;;24.48;53.10;101502.56;2203953;39;115862;-54
2021/06/03 06:02:11;;;;;;;;;;;;;;;24.49;52.72;101503.38;2205544;39;114544;-52
2021/06/03 06:06:53;;;;;;;;;;;;;;;24.48;52.99;101496.06;2210644;39;114479;-53
2021/06/03 06:08:25;;;;;;;;;;;;;;;24.48;52.78;101498.91;2200195;39;116404;-54
2021/06/03 06:09:57;;;;;;;;;;;;;;;24.48;52.85;101501.72;2202587;39;115498;-53
2021/06/03 06:11:30;;;;;;;;;;;;;;;24.49;52.90;101492.06;2210086;39;115464;-53
2021/06/03 06:13:03;;;;;;;;;;;;;;;24.48;52.33;101502.56;2209755;39;115532;-52
2021/06/03 06:14:35;;;;;;;;;;;;;;;24.49;52.72;101511.84;2204810;39;115244;-54
2021/06/03 06:16:07;;;;;;;;;;;;;;;24.50;52.36;101508.72;2204664;39;115353;-54
2021/06/03 06:17:39;;;;;;;;;;;;;;;24.52;52.43;101516.88;2207838;39;115556;-53
2021/06/03 06:19:11;;;;;;;;;;;;;;;24.51;52.54;101518.03;2203651;39;115988;-53
2021/06/03 06:20:43;;;;;;;;;;;;;;;24.50;52.44;101519.16;2208494;39;115560;-53
2021/06/03 06:22:16;;;;;;;;;;;;;;;24.50;52.69;101522.00;2205525;39;114054;-53
2021/06/03 06:23:48;;;;;;;;;;;;;;;24.49;52.50;101523.16;2213024;39;113805;-52
2021/06/03 06:25:21;;;;;;;;;;;;;;;24.47;53.21;101523.47;2204507;39;113816;-53
2021/06/03 06:26:53;;;;;;;;;;;;;;;24.46;52.60;101523.78;2205930;39;113747;-53
2021/06/03 06:28:24;;;;;;;;;;;;;;;24.47;52.64;101529.13;2203326;39;114906;-53
2021/06/03 06:29:57;;;;;;;;;;;;;;;24.48;52.61;101527.16;2202321;39;113852;-53
2021/06/03 06:31:28;;;;;;;;;;;;;;;24.48;52.55;101529.97;2206217;39;113724;-52
2021/06/03 06:33:01;;;;;;;;;;;;;;;24.47;52.54;101531.97;2211252;39;113564;-53
2021/06/03 06:34:33;;;;;;;;;;;;;;;24.45;52.67;101536.25;2199982;39;113923;-54
2021/06/03 06:36:05;;;;;;;;;;;;;;;24.44;53.01;101543.88;2207665;39;114449;-54
2021/06/03 06:37:38;;;;;;;;;;;;;;;24.45;53.05;101545.56;2203032;39;113907;-53
2021/06/03 06:39:10;;;;;;;;;;;;;;;24.45;52.52;101553.19;2205424;39;114022;-53
2021/06/03 06:40:43;;;;;;;;;;;;;;;24.46;53.06;101554.88;2209276;39;114234;-53
2021/06/03 06:42:15;;;;;;;;;;;;;;;24.46;52.93;101550.06;2208879;39;114444;-53
2021/06/03 06:43:47;;;;;;;;;;;;;;;24.47;52.93;101560.22;2211541;39;114288;-53
2021/06/03 06:45:19;;;;;;;;;;;;;;;24.50;52.26;101550.25;2199591;39;114847;-53
2021/06/03 06:46:52;;;;;;;;;;;;;;;24.47;52.60;101551.75;2209063;39;114778;-53
2021/06/03 06:48:24;;;;;;;;;;;;;;;24.47;52.88;101559.38;2211496;39;115244;-53
2021/06/03 06:49:56;;;;;;;;;;;;;;;24.47;52.64;101551.75;2210116;39;115877;-53
2021/06/03 06:51:28;;;;;;;;;;;;;;;24.47;52.78;101562.19;2208903;39;114186;-53
2021/06/03 06:53:00;;;;;;;;;;;;;;;24.46;52.71;101554.88;2211581;39;114408;-53
2021/06/03 06:54:32;;;;;;;;;;;;;;;24.48;52.46;101552.56;2207593;39;114839;-52
2021/06/03 06:56:04;;;;;;;;;;;;;;;24.47;52.55;101559.38;2208840;39;114849;-53
2021/06/03 06:57:36;;;;;;;;;;;;;;;24.45;52.34;101548.38;2202703;39;114693;-53
2021/06/03 06:59:08;;;;;;;;;;;;;;;24.45;52.38;101548.38;2204712;39;115356;-53
2021/06/03 07:00:41;;;;;;;;;;;;;;;24.44;52.71;101552.34;2211814;39;115339;-54
2021/06/03 07:02:13;;;;;;;;;;;;;;;24.46;52.42;101552.06;2206795;39;115296;-53
2021/06/03 07:03:45;;;;;;;;;;;;;;;24.44;52.78;101552.34;2210986;39;115075;-53
2021/06/03 07:05:17;;;;;;;;;;;;;;;24.48;52.66;101561.06;2211462;39;114968;-53
2021/06/03 07:06:49;;;;;;;;;;;;;;;24.46;52.49;101555.72;2211429;39;114644;-53
2021/06/03 07:08:21;;;;;;;;;;;;;;;24.44;52.92;101560.84;2210160;39;116240;-54
2021/06/03 07:09:53;;;;;;;;;;;;;;;24.45;52.62;101562.50;2208371;39;115312;-53
2021/06/03 07:11:25;;;;;;;;;;;;;;;24.44;52.71;101563.66;2203185;39;115511;-54
2021/06/03 07:13:17;;;;;;;;;;;;;;;24.45;52.70;101561.66;2208407;39;115414;-54
2021/06/03 07:14:49;;;;;;;;;;;;;;;24.45;52.22;101567.31;2209735;39;114757;-53
2021/06/03 07:16:21;;;;;;;;;;;;;;;24.46;52.56;101567.00;2199056;39;115568;-54
2021/06/03 07:17:54;;;;;;;;;;;;;;;24.45;52.71;101561.66;2205738;39;115986;-54
2021/06/03 07:19:27;;;;;;;;;;;;;;;24.45;52.90;101570.16;2211316;39;116125;-53
2021/06/03 07:20:59;;;;;;;;;;;;;;;24.46;52.82;101572.66;2206770;39;115727;-53
2021/06/03 07:22:31;;;;;;;;;;;;;;;24.45;53.33;101573.81;2210969;39;115413;-53
2021/06/03 07:24:03;;;;;;;;;;;;;;;24.45;52.95;101570.16;2210024;39;115914;-53
2021/06/03 07:25:37;;;;;;;;;;;;;;;24.44;52.84;101566.47;2208343;39;115155;-53
2021/06/03 07:27:09;;;;;;;;;;;;;;;24.46;53.06;101577.47;2210610;39;114583;-53
2021/06/03 07:28:41;;;;;;;;;;;;;;;24.45;53.00;101581.44;2211582;39;114705;-52
2021/06/03 07:30:14;;;;;;;;;;;;;;;24.46;53.38;101578.31;2209723;39;113799;-54
2021/06/03 07:31:46;;;;;;;;;;;;;;;24.47;53.18;101574.34;2208297;39;113850;-53
2021/06/03 07:33:18;;;;;;;;;;;;;;;24.51;52.44;101583.00;2210557;39;113871;-53
2021/06/03 07:34:54;;;;;;;;;;;;;;;24.50;52.24;101572.84;2204903;39;113832;-52
2021/06/03 07:36:26;;;;;;;;;;;;;;;24.50;52.58;101584.16;2209545;39;113829;-54
2021/06/03 07:37:58;;;;;;;;;;;;;;;24.49;52.52;101579.66;2206087;39;114087;-54
2021/06/03 07:39:30;;;;;;;;;;;;;;;24.47;53.01;101576.31;2207313;39;113833;-53
2021/06/03 07:41:03;;;;;;;;;;;;;;;24.49;52.80;101574.00;2206500;39;113632;-53
2021/06/03 07:42:35;;;;;;;;;;;;;;;24.52;52.97;101573.38;2212956;39;113848;-53
2021/06/03 07:44:07;;;;;;;;;;;;;;;24.50;53.03;101572.84;2210647;39;113706;-53
2021/06/03 07:45:40;;;;;;;;;;;;;;;24.50;52.36;101572.84;2209408;39;113877;-53
2021/06/03 07:47:12;;;;;;;;;;;;;;;24.51;52.79;101574.53;2203680;39;113724;-53
2021/06/03 07:48:44;;;;;;;;;;;;;;;24.48;53.03;101576.00;2206594;39;113691;-53
2021/06/03 07:50:16;;;;;;;;;;;;;;;24.48;52.99;101576.00;2202571;39;114947;-53
2021/06/03 07:51:47;;;;;;;;;;;;;;;24.48;53.50;101575.19;2202863;39;114820;-53
2021/06/03 07:53:22;;;;;;;;;;;;;;;24.46;53.17;101577.47;2204655;39;115624;-54
2021/06/03 07:54:55;;;;;;;;;;;;;;;24.46;53.29;101580.28;2209395;39;115143;-53
2021/06/03 07:56:27;;;;;;;;;;;;;;;24.49;53.46;101579.66;2198578;39;114934;-53